createdAt,value
2019-03-18T00:00:50.728Z,0.00
2019-03-18T00:01:50.716Z,0.00
2019-03-18T00:02:50.705Z,0.00
2019-03-18T00:03:50.738Z,0.00
2019-03-18T00:04:50.685Z,0.00
2019-03-18T00:05:50.678Z,0.00
2019-03-18T00:06:50.663Z,0.00
2019-03-18T00:07:50.691Z,0.00
2019-03-18T00:08:50.681Z,0.00
2019-03-18T00:09:50.631Z,0.00
2019-03-18T00:10:50.621Z,0.00
2019-03-18T00:11:50.613Z,0.00
2019-03-18T00:12:52.137Z,0.00
2019-03-18T00:13:50.590Z,0.00
2019-03-18T00:15:00.702Z,0.00
2019-03-18T00:15:51.570Z,0.00
2019-03-18T00:16:50.556Z,0.00
2019-03-18T00:17:50.542Z,0.00
2019-03-18T00:18:50.537Z,0.00
2019-03-18T00:19:50.560Z,0.00
2019-03-18T00:20:50.512Z,0.00
2019-03-18T00:21:50.500Z,0.00
2019-03-18T00:22:50.489Z,0.00
2019-03-18T00:23:50.522Z,0.00
2019-03-18T00:24:50.470Z,0.00
2019-03-18T00:25:50.456Z,0.00
2019-03-18T00:26:50.445Z,0.00
2019-03-18T00:27:50.437Z,0.00
2019-03-18T00:28:50.424Z,0.00
2019-03-18T00:29:50.459Z,0.00
2019-03-18T00:30:50.410Z,0.00
2019-03-18T00:31:50.393Z,0.00
2019-03-18T00:32:50.381Z,0.00
2019-03-18T00:33:50.416Z,0.00
2019-03-18T00:34:50.364Z,0.00
2019-03-18T00:35:50.351Z,0.00
2019-03-18T00:36:50.340Z,0.00
2019-03-18T00:37:50.371Z,0.00
2019-03-18T00:38:50.358Z,0.00
2019-03-18T00:39:50.358Z,0.00
2019-03-18T00:40:50.294Z,0.00
2019-03-18T00:41:50.284Z,0.00
2019-03-18T00:42:50.276Z,0.00
2019-03-18T00:43:50.302Z,0.00
2019-03-18T00:44:50.292Z,0.00
2019-03-18T00:45:50.304Z,0.00
2019-03-18T00:46:50.230Z,0.00
2019-03-18T00:47:50.222Z,0.00
2019-03-18T00:48:50.209Z,0.00
2019-03-18T00:49:50.243Z,0.00
2019-03-18T00:50:50.189Z,0.00
2019-03-18T00:51:50.178Z,0.00
2019-03-18T00:52:50.167Z,0.00
2019-03-18T00:53:50.160Z,0.00
2019-03-18T00:54:50.149Z,0.00
2019-03-18T00:55:51.792Z,0.00
2019-03-18T00:56:50.125Z,0.00
2019-03-18T00:57:50.112Z,0.00
2019-03-18T00:58:50.163Z,0.00
2019-03-18T00:59:50.094Z,0.00
2019-03-18T01:00:50.081Z,0.00
2019-03-18T01:01:50.069Z,0.00
2019-03-18T01:02:50.160Z,0.00
2019-03-18T01:03:50.051Z,0.00
2019-03-18T01:04:50.083Z,0.00
2019-03-18T01:05:50.070Z,0.00
2019-03-18T01:06:50.018Z,0.00
2019-03-18T01:07:50.009Z,0.00
2019-03-18T01:08:49.998Z,0.00
2019-03-18T01:09:50.033Z,0.00
2019-03-18T01:10:50.016Z,0.00
2019-03-18T01:11:49.965Z,0.00
2019-03-18T01:12:49.964Z,0.00
2019-03-18T01:13:49.990Z,0.00
2019-03-18T01:14:49.931Z,0.00
2019-03-18T01:15:49.919Z,0.00
2019-03-18T01:16:49.923Z,0.00
2019-03-18T01:17:49.899Z,0.00
2019-03-18T01:18:49.889Z,0.00
2019-03-18T01:19:49.919Z,0.00
2019-03-18T01:20:49.869Z,0.00
2019-03-18T01:21:49.905Z,0.00
2019-03-18T01:22:49.862Z,0.00
2019-03-18T01:23:49.835Z,0.00
2019-03-18T01:24:49.832Z,0.00
2019-03-18T01:25:49.852Z,0.00
2019-03-18T01:26:49.804Z,0.00
2019-03-18T01:27:49.801Z,0.00
2019-03-18T01:28:49.867Z,0.00
2019-03-18T01:29:49.773Z,0.00
2019-03-18T01:30:49.763Z,0.00
2019-03-18T01:31:49.786Z,0.00
2019-03-18T01:32:49.736Z,0.00
2019-03-18T01:33:49.725Z,0.00
2019-03-18T01:34:49.755Z,0.00
2019-03-18T01:35:49.709Z,0.00
2019-03-18T01:36:49.734Z,0.00
2019-03-18T01:37:49.689Z,0.00
2019-03-18T01:38:49.672Z,0.00
2019-03-18T01:39:49.665Z,0.00
2019-03-18T01:40:49.649Z,0.00
2019-03-18T01:41:49.683Z,0.00
2019-03-18T01:42:49.653Z,0.00
2019-03-18T01:43:49.620Z,0.00
2019-03-18T01:44:49.606Z,0.00
2019-03-18T01:45:49.647Z,0.00
2019-03-18T01:46:49.586Z,0.00
2019-03-18T01:47:49.577Z,0.00
2019-03-18T01:48:49.571Z,0.00
2019-03-18T01:49:49.554Z,0.00
2019-03-18T01:50:49.547Z,0.00
2019-03-18T01:51:49.571Z,0.00
2019-03-18T01:52:49.522Z,0.00
2019-03-18T01:53:49.512Z,0.00
2019-03-18T01:54:49.538Z,0.00
2019-03-18T01:55:49.490Z,0.00
2019-03-18T01:56:49.539Z,0.00
2019-03-18T01:57:49.476Z,0.00
2019-03-18T01:58:49.456Z,0.00
2019-03-18T01:59:49.489Z,0.00
2019-03-18T02:00:49.437Z,0.00
2019-03-18T02:01:49.426Z,0.00
2019-03-18T02:02:51.814Z,0.00
2019-03-18T02:03:49.403Z,0.00
2019-03-18T02:04:49.437Z,0.00
2019-03-18T02:05:49.416Z,0.00
2019-03-18T02:06:49.373Z,0.00
2019-03-18T02:07:49.358Z,0.00
2019-03-18T02:08:49.350Z,0.00
2019-03-18T02:09:49.342Z,0.00
2019-03-18T02:10:49.367Z,0.00
2019-03-18T02:11:49.318Z,0.00
2019-03-18T02:12:49.306Z,0.00
2019-03-18T02:13:49.296Z,0.00
2019-03-18T02:14:49.328Z,0.00
2019-03-18T02:15:53.517Z,0.00
2019-03-18T02:16:49.298Z,0.00
2019-03-18T02:17:49.293Z,0.00
2019-03-18T02:18:49.240Z,0.00
2019-03-18T02:19:49.231Z,0.00
2019-03-18T02:20:49.220Z,0.00
2019-03-18T02:21:49.248Z,0.00
2019-03-18T02:22:49.238Z,0.00
2019-03-18T02:23:49.190Z,0.00
2019-03-18T02:24:49.190Z,0.00
2019-03-18T02:25:49.204Z,0.00
2019-03-18T02:26:49.176Z,0.00
2019-03-18T02:27:49.144Z,0.00
2019-03-18T02:28:49.134Z,0.00
2019-03-18T02:29:49.165Z,0.00
2019-03-18T02:30:49.113Z,0.00
2019-03-18T02:31:49.115Z,0.00
2019-03-18T02:32:49.134Z,0.00
2019-03-18T02:33:49.120Z,0.00
2019-03-18T02:34:49.071Z,0.00
2019-03-18T02:35:49.062Z,0.00
2019-03-18T02:36:49.090Z,0.00
2019-03-18T02:37:49.044Z,0.00
2019-03-18T02:38:49.031Z,0.00
2019-03-18T02:39:49.017Z,0.00
2019-03-18T02:40:49.003Z,0.00
2019-03-18T02:41:49.067Z,0.00
2019-03-18T02:42:49.029Z,0.00
2019-03-18T02:43:48.973Z,0.00
2019-03-18T02:44:48.960Z,0.00
2019-03-18T02:45:48.997Z,0.00
2019-03-18T02:46:48.939Z,0.00
2019-03-18T02:47:48.933Z,0.00
2019-03-18T02:48:48.919Z,0.00
2019-03-18T02:49:48.909Z,0.00
2019-03-18T02:50:48.942Z,0.00
2019-03-18T02:51:52.665Z,0.00
2019-03-18T02:52:48.876Z,0.00
2019-03-18T02:53:48.870Z,0.00
2019-03-18T02:54:48.855Z,0.00
2019-03-18T02:55:48.886Z,0.00
2019-03-18T02:56:48.831Z,0.00
2019-03-18T02:57:48.881Z,0.00
2019-03-18T02:58:48.817Z,0.00
2019-03-18T02:59:48.799Z,0.00
2019-03-18T03:00:48.793Z,0.00
2019-03-18T03:01:48.775Z,0.00
2019-03-18T03:02:48.810Z,0.00
2019-03-18T03:03:48.763Z,0.00
2019-03-18T03:04:48.742Z,0.00
2019-03-18T03:05:48.737Z,0.00
2019-03-18T03:06:48.752Z,0.00
2019-03-18T03:07:48.761Z,0.00
2019-03-18T03:08:48.699Z,0.00
2019-03-18T03:09:48.688Z,0.00
2019-03-18T03:10:48.682Z,0.00
2019-03-18T03:11:48.675Z,0.00
2019-03-18T03:12:48.729Z,0.00
2019-03-18T03:13:48.646Z,0.00
2019-03-18T03:14:48.692Z,0.00
2019-03-18T03:15:48.638Z,0.00
2019-03-18T03:16:48.613Z,0.00
2019-03-18T03:17:48.633Z,0.00
2019-03-18T03:18:48.592Z,0.00
2019-03-18T03:19:48.581Z,0.00
2019-03-18T03:20:48.623Z,0.00
2019-03-18T03:21:48.565Z,0.00
2019-03-18T03:22:48.549Z,0.00
2019-03-18T03:23:48.539Z,0.00
2019-03-18T03:24:48.686Z,0.00
2019-03-18T03:25:48.524Z,0.00
2019-03-18T03:26:48.507Z,0.00
2019-03-18T03:27:48.497Z,0.00
2019-03-18T03:28:48.487Z,0.00
2019-03-18T03:29:48.522Z,0.00
2019-03-18T03:30:48.586Z,0.00
2019-03-18T03:31:48.510Z,0.00
2019-03-18T03:32:48.442Z,0.00
2019-03-18T03:33:48.436Z,0.00
2019-03-18T03:34:48.430Z,0.00
2019-03-18T03:35:48.408Z,0.00
2019-03-18T03:36:48.450Z,0.00
2019-03-18T03:37:48.391Z,0.00
2019-03-18T03:38:48.379Z,0.00
2019-03-18T03:39:48.367Z,0.00
2019-03-18T03:40:48.356Z,0.00
2019-03-18T03:41:48.419Z,0.00
2019-03-18T03:42:48.335Z,0.00
2019-03-18T03:43:48.324Z,0.00
2019-03-18T03:44:48.311Z,0.00
2019-03-18T03:45:48.342Z,0.00
2019-03-18T03:46:48.337Z,0.00
2019-03-18T03:47:48.288Z,0.00
2019-03-18T03:48:48.272Z,0.00
2019-03-18T03:49:48.308Z,0.00
2019-03-18T03:50:48.245Z,0.00
2019-03-18T03:51:48.240Z,0.00
2019-03-18T03:52:48.276Z,0.00
2019-03-18T03:53:48.219Z,0.00
2019-03-18T03:54:48.205Z,0.00
2019-03-18T03:55:48.230Z,0.00
2019-03-18T03:56:48.184Z,0.00
2019-03-18T03:57:48.218Z,0.00
2019-03-18T03:58:48.159Z,0.00
2019-03-18T03:59:48.150Z,0.00
2019-03-18T04:00:48.139Z,0.00
2019-03-18T04:01:48.130Z,0.00
2019-03-18T04:02:48.128Z,0.00
2019-03-18T04:03:48.158Z,0.00
2019-03-18T04:04:48.105Z,0.00
2019-03-18T04:05:48.087Z,0.00
2019-03-18T04:06:48.077Z,0.00
2019-03-18T04:07:48.113Z,0.00
2019-03-18T04:08:48.055Z,0.00
2019-03-18T04:09:48.040Z,0.00
2019-03-18T04:10:48.038Z,0.00
2019-03-18T04:11:48.028Z,0.00
2019-03-18T04:12:48.009Z,0.00
2019-03-18T04:13:48.049Z,0.00
2019-03-18T04:14:48.034Z,0.00
2019-03-18T04:15:47.980Z,0.00
2019-03-18T04:17:00.645Z,0.00
2019-03-18T04:17:48.951Z,0.00
2019-03-18T04:18:47.944Z,0.00
2019-03-18T04:19:47.995Z,0.00
2019-03-18T04:20:47.922Z,0.00
2019-03-18T04:21:50.648Z,0.00
2019-03-18T04:22:47.951Z,0.00
2019-03-18T04:23:47.887Z,0.00
2019-03-18T04:24:47.880Z,0.00
2019-03-18T04:25:47.908Z,0.00
2019-03-18T04:26:47.855Z,0.00
2019-03-18T04:27:47.853Z,0.00
2019-03-18T04:28:47.833Z,0.00
2019-03-18T04:29:47.869Z,0.00
2019-03-18T04:30:47.811Z,0.00
2019-03-18T04:31:47.801Z,0.00
2019-03-18T04:32:47.791Z,0.00
2019-03-18T04:33:47.781Z,0.00
2019-03-18T04:34:47.770Z,0.00
2019-03-18T04:35:47.810Z,0.00
2019-03-18T04:36:47.772Z,0.00
2019-03-18T04:37:47.825Z,0.00
2019-03-18T04:38:47.847Z,0.00
2019-03-18T04:39:47.717Z,0.00
2019-03-18T04:40:47.704Z,0.00
2019-03-18T04:41:47.692Z,0.00
2019-03-18T04:42:47.682Z,0.00
2019-03-18T04:43:47.727Z,0.00
2019-03-18T04:44:47.660Z,0.00
2019-03-18T04:45:47.651Z,0.00
2019-03-18T04:46:47.640Z,0.00
2019-03-18T04:47:47.683Z,0.00
2019-03-18T04:48:47.621Z,0.00
2019-03-18T04:49:47.605Z,0.00
2019-03-18T04:50:47.635Z,0.00
2019-03-18T04:51:47.588Z,0.00
2019-03-18T04:52:47.621Z,0.00
2019-03-18T04:53:47.563Z,0.00
2019-03-18T04:54:47.550Z,0.00
2019-03-18T04:55:47.540Z,0.00
2019-03-18T04:56:47.529Z,0.00
2019-03-18T04:57:47.518Z,0.00
2019-03-18T04:58:47.551Z,0.00
2019-03-18T04:59:47.496Z,0.00
2019-03-18T05:00:47.487Z,0.00
2019-03-18T05:01:47.478Z,0.00
2019-03-18T05:02:47.462Z,0.00
2019-03-18T05:03:47.454Z,0.00
2019-03-18T05:04:47.481Z,0.00
2019-03-18T05:05:47.431Z,0.00
2019-03-18T05:06:47.421Z,0.00
2019-03-18T05:07:47.408Z,0.00
2019-03-18T05:08:47.444Z,0.00
2019-03-18T05:09:47.388Z,0.00
2019-03-18T05:10:47.377Z,0.00
2019-03-18T05:11:47.414Z,0.00
2019-03-18T05:12:47.356Z,0.00
2019-03-18T05:13:47.370Z,0.00
2019-03-18T05:14:47.333Z,0.00
2019-03-18T05:15:47.323Z,0.00
2019-03-18T05:16:47.313Z,4.00
2019-03-18T05:17:47.354Z,4.00
2019-03-18T05:18:47.290Z,4.00
2019-03-18T05:19:47.279Z,4.00
2019-03-18T05:20:47.268Z,8.00
2019-03-18T05:21:47.257Z,8.00
2019-03-18T05:22:47.308Z,8.00
2019-03-18T05:23:47.237Z,12.00
2019-03-18T05:24:47.225Z,12.00
2019-03-18T05:25:47.269Z,12.00
2019-03-18T05:26:47.205Z,16.00
2019-03-18T05:27:47.194Z,20.00
2019-03-18T05:28:47.187Z,20.00
2019-03-18T05:29:47.170Z,20.00
2019-03-18T05:30:47.162Z,24.00
2019-03-18T05:31:47.193Z,28.00
2019-03-18T05:32:47.152Z,28.00
2019-03-18T05:33:47.128Z,32.00
2019-03-18T05:34:47.125Z,40.00
2019-03-18T05:35:47.156Z,44.00
2019-03-18T05:36:47.095Z,52.00
2019-03-18T05:37:47.085Z,60.00
2019-03-18T05:38:47.076Z,68.00
2019-03-18T05:39:47.064Z,72.00
2019-03-18T05:40:47.092Z,72.00
2019-03-18T05:41:47.097Z,72.00
2019-03-18T05:42:47.030Z,76.00
2019-03-18T05:43:47.019Z,80.00
2019-03-18T05:44:47.009Z,76.00
2019-03-18T05:45:47.001Z,76.00
2019-03-18T05:46:46.995Z,64.00
2019-03-18T05:47:47.024Z,52.00
2019-03-18T05:48:46.969Z,40.00
2019-03-18T05:49:46.965Z,40.00
2019-03-18T05:50:46.949Z,52.00
2019-03-18T05:51:46.937Z,56.00
2019-03-18T05:52:46.926Z,64.00
2019-03-18T05:53:46.972Z,68.00
2019-03-18T05:54:46.903Z,68.00
2019-03-18T05:55:46.892Z,72.00
2019-03-18T05:56:46.927Z,76.00
2019-03-18T05:57:46.873Z,76.00
2019-03-18T05:58:46.986Z,80.00
2019-03-18T05:59:46.848Z,88.00
2019-03-18T06:00:46.841Z,104.00
2019-03-18T06:01:46.854Z,124.00
2019-03-18T06:02:47.396Z,144.00
2019-03-18T06:03:46.826Z,152.00
2019-03-18T06:04:46.860Z,164.00
2019-03-18T06:05:46.796Z,172.00
2019-03-18T06:06:46.792Z,184.00
2019-03-18T06:07:46.765Z,216.00
2019-03-18T06:08:46.787Z,236.00
2019-03-18T06:09:46.756Z,224.00
2019-03-18T06:10:46.813Z,216.00
2019-03-18T06:11:46.735Z,212.00
2019-03-18T06:12:46.714Z,216.00
2019-03-18T06:13:46.727Z,212.00
2019-03-18T06:14:46.759Z,228.00
2019-03-18T06:15:46.727Z,260.00
2019-03-18T06:16:46.727Z,284.00
2019-03-18T06:17:52.324Z,304.00
2019-03-18T06:18:47.685Z,324.00
2019-03-18T06:19:46.639Z,324.00
2019-03-18T06:20:46.636Z,320.00
2019-03-18T06:21:46.618Z,340.00
2019-03-18T06:22:46.624Z,388.00
2019-03-18T06:23:46.663Z,408.00
2019-03-18T06:24:46.610Z,420.00
2019-03-18T06:25:46.584Z,476.00
2019-03-18T06:26:48.545Z,536.00
2019-03-18T06:27:46.589Z,544.00
2019-03-18T06:28:46.608Z,580.00
2019-03-18T06:29:46.569Z,676.00
2019-03-18T06:30:46.524Z,716.00
2019-03-18T06:31:46.555Z,744.00
2019-03-18T06:32:46.505Z,820.00
2019-03-18T06:33:46.487Z,888.00
2019-03-18T06:34:46.497Z,916.00
2019-03-18T06:35:46.649Z,1008.00
2019-03-18T06:36:46.529Z,1068.00
2019-03-18T06:37:46.459Z,928.00
2019-03-18T06:38:46.457Z,680.00
2019-03-18T06:39:46.427Z,452.00
2019-03-18T06:40:46.446Z,384.00
2019-03-18T06:41:46.470Z,360.00
2019-03-18T06:42:46.398Z,384.00
2019-03-18T06:43:46.416Z,468.00
2019-03-18T06:44:46.378Z,568.00
2019-03-18T06:45:46.385Z,620.00
2019-03-18T06:46:46.363Z,736.00
2019-03-18T06:47:46.414Z,888.00
2019-03-18T06:48:46.333Z,812.00
2019-03-18T06:49:46.320Z,800.00
2019-03-18T06:50:46.317Z,672.00
2019-03-18T06:51:46.463Z,576.00
2019-03-18T06:52:46.331Z,512.00
2019-03-18T06:53:46.291Z,492.00
2019-03-18T06:54:46.339Z,528.00
2019-03-18T06:55:46.258Z,688.00
2019-03-18T06:56:46.258Z,900.00
2019-03-18T06:57:46.267Z,1164.00
2019-03-18T06:58:46.291Z,1404.00
2019-03-18T06:59:46.241Z,1612.00
2019-03-18T07:00:46.210Z,1624.00
2019-03-18T07:01:46.210Z,1528.00
2019-03-18T07:02:46.181Z,1384.00
2019-03-18T07:03:46.217Z,1352.00
2019-03-18T07:04:46.183Z,1572.00
2019-03-18T07:05:46.362Z,1672.00
2019-03-18T07:06:46.220Z,1664.00
2019-03-18T07:07:46.200Z,1720.00
2019-03-18T07:08:46.226Z,1824.00
2019-03-18T07:09:46.109Z,1984.00
2019-03-18T07:10:46.092Z,2280.00
2019-03-18T07:11:46.103Z,2640.00
2019-03-18T07:12:46.111Z,3012.00
2019-03-18T07:13:46.068Z,3272.00
2019-03-18T07:14:46.048Z,3288.00
2019-03-18T07:15:46.085Z,3268.00
2019-03-18T07:16:46.033Z,3444.00
2019-03-18T07:17:46.015Z,3764.00
2019-03-18T07:18:46.042Z,3948.00
2019-03-18T07:19:45.990Z,4024.00
2019-03-18T07:20:46.052Z,4056.00
2019-03-18T07:21:46.035Z,4152.00
2019-03-18T07:22:45.967Z,4260.00
2019-03-18T07:23:45.994Z,4460.00
2019-03-18T07:24:45.951Z,4560.00
2019-03-18T07:25:46.003Z,4580.00
2019-03-18T07:26:45.948Z,4744.00
2019-03-18T07:27:45.960Z,4620.00
2019-03-18T07:28:45.910Z,4708.00
2019-03-18T07:29:45.886Z,4856.00
2019-03-18T07:30:45.920Z,5308.00
2019-03-18T07:31:45.937Z,5460.00
2019-03-18T07:32:45.869Z,5336.00
2019-03-18T07:33:45.905Z,5044.00
2019-03-18T07:34:45.832Z,4696.00
2019-03-18T07:35:45.862Z,4560.00
2019-03-18T07:36:45.877Z,4640.00
2019-03-18T07:37:45.950Z,4164.00
2019-03-18T07:38:45.791Z,2972.00
2019-03-18T07:39:45.849Z,2800.00
2019-03-18T07:40:46.211Z,2760.00
2019-03-18T07:41:45.766Z,2760.00
2019-03-18T07:42:45.794Z,3036.00
2019-03-18T07:43:45.737Z,3532.00
2019-03-18T07:44:45.727Z,3860.00
2019-03-18T07:45:45.814Z,4260.00
2019-03-18T07:46:45.721Z,4728.00
2019-03-18T07:47:45.786Z,4696.00
2019-03-18T07:48:45.691Z,4412.00
2019-03-18T07:49:45.665Z,4260.00
2019-03-18T07:50:45.662Z,4196.00
2019-03-18T07:51:45.679Z,4284.00
2019-03-18T07:52:45.644Z,4432.00
2019-03-18T07:53:45.702Z,4912.00
2019-03-18T07:54:45.723Z,5344.00
2019-03-18T07:55:45.622Z,5424.00
2019-03-18T07:56:45.607Z,5280.00
2019-03-18T07:57:45.601Z,5420.00
2019-03-18T07:58:45.589Z,5716.00
2019-03-18T07:59:45.588Z,6084.00
2019-03-18T08:00:45.668Z,6236.00
2019-03-18T08:01:45.553Z,6384.00
2019-03-18T08:02:45.524Z,6492.00
2019-03-18T08:03:45.534Z,6504.00
2019-03-18T08:04:45.535Z,6452.00
2019-03-18T08:05:45.529Z,6340.00
2019-03-18T08:06:45.553Z,6136.00
2019-03-18T08:07:45.470Z,5956.00
2019-03-18T08:08:45.462Z,5792.00
2019-03-18T08:09:45.495Z,5564.00
2019-03-18T08:10:45.472Z,5300.00
2019-03-18T08:11:45.489Z,5244.00
2019-03-18T08:12:45.482Z,5560.00
2019-03-18T08:13:45.413Z,6056.00
2019-03-18T08:14:45.418Z,6388.00
2019-03-18T08:15:45.406Z,6460.00
2019-03-18T08:16:45.438Z,6400.00
2019-03-18T08:17:45.380Z,6348.00
2019-03-18T08:18:45.348Z,6544.00
2019-03-18T08:19:45.388Z,6888.00
2019-03-18T08:20:45.335Z,7096.00
2019-03-18T08:21:45.317Z,6996.00
2019-03-18T08:22:45.333Z,6824.00
2019-03-18T08:23:45.349Z,6740.00
2019-03-18T08:24:45.321Z,6536.00
2019-03-18T08:25:45.270Z,6304.00
2019-03-18T08:26:45.307Z,6288.00
2019-03-18T08:27:45.251Z,6560.00
2019-03-18T08:28:45.276Z,7140.00
2019-03-18T08:29:45.269Z,7624.00
2019-03-18T08:30:45.236Z,7420.00
2019-03-18T08:31:45.213Z,6408.00
2019-03-18T08:32:45.187Z,5596.00
2019-03-18T08:33:45.189Z,5048.00
2019-03-18T08:34:45.293Z,4756.00
2019-03-18T08:35:45.153Z,4896.00
2019-03-18T08:36:45.187Z,5380.00
2019-03-18T08:37:45.169Z,5720.00
2019-03-18T08:38:45.156Z,5708.00
2019-03-18T08:39:45.180Z,5712.00
2019-03-18T08:40:45.127Z,5728.00
2019-03-18T08:41:45.112Z,5736.00
2019-03-18T08:42:45.157Z,5904.00
2019-03-18T08:43:45.075Z,6008.00
2019-03-18T08:44:45.054Z,6636.00
2019-03-18T08:45:45.047Z,7764.00
2019-03-18T08:46:45.049Z,8748.00
2019-03-18T08:47:45.076Z,9180.00
2019-03-18T08:48:55.346Z,9396.00
2019-03-18T08:49:46.052Z,9176.00
2019-03-18T08:50:45.017Z,8640.00
2019-03-18T08:51:45.041Z,8340.00
2019-03-18T08:52:44.991Z,8800.00
2019-03-18T08:53:44.980Z,8656.00
2019-03-18T08:54:44.960Z,8600.00
2019-03-18T08:55:45.058Z,8768.00
2019-03-18T08:56:44.931Z,8904.00
2019-03-18T08:57:44.997Z,8632.00
2019-03-18T08:58:44.901Z,8236.00
2019-03-18T08:59:44.895Z,8224.00
2019-03-18T09:00:44.878Z,8224.00
2019-03-18T09:01:44.867Z,8148.00
2019-03-18T09:02:44.924Z,7956.00
2019-03-18T09:03:44.879Z,8076.00
2019-03-18T09:04:44.889Z,8552.00
2019-03-18T09:05:44.817Z,8272.00
2019-03-18T09:06:44.814Z,7824.00
2019-03-18T09:07:44.912Z,7748.00
2019-03-18T09:08:44.866Z,7748.00
2019-03-18T09:09:44.779Z,8288.00
2019-03-18T09:10:44.808Z,9276.00
2019-03-18T09:11:44.775Z,9888.00
2019-03-18T09:12:44.780Z,9556.00
2019-03-18T09:13:44.744Z,9916.00
2019-03-18T09:14:44.717Z,8724.00
2019-03-18T09:15:44.787Z,7584.00
2019-03-18T09:16:44.725Z,7196.00
2019-03-18T09:17:44.729Z,7408.00
2019-03-18T09:18:44.684Z,8880.00
2019-03-18T09:19:44.665Z,9808.00
2019-03-18T09:20:44.655Z,10264.00
2019-03-18T09:21:44.653Z,9620.00
2019-03-18T09:22:44.663Z,9748.00
2019-03-18T09:23:44.667Z,10124.00
2019-03-18T09:24:44.610Z,10468.00
2019-03-18T09:25:44.758Z,10476.00
2019-03-18T09:26:44.585Z,9880.00
2019-03-18T09:27:44.587Z,9200.00
2019-03-18T09:28:44.567Z,8288.00
2019-03-18T09:29:44.553Z,8396.00
2019-03-18T09:30:44.594Z,7860.00
2019-03-18T09:31:44.571Z,7724.00
2019-03-18T09:32:44.571Z,8540.00
2019-03-18T09:33:44.518Z,8604.00
2019-03-18T09:34:44.554Z,9052.00
2019-03-18T09:35:44.497Z,9312.00
2019-03-18T09:36:44.482Z,9712.00
2019-03-18T09:37:44.468Z,9756.00
2019-03-18T09:38:44.537Z,9572.00
2019-03-18T09:39:44.441Z,9504.00
2019-03-18T09:40:44.443Z,9192.00
2019-03-18T09:41:44.433Z,8656.00
2019-03-18T09:42:44.416Z,8124.00
2019-03-18T09:43:44.405Z,7464.00
2019-03-18T09:44:44.429Z,6964.00
2019-03-18T09:45:44.423Z,6568.00
2019-03-18T09:46:44.415Z,5804.00
2019-03-18T09:47:44.345Z,4772.00
2019-03-18T09:48:44.347Z,3828.00
2019-03-18T09:49:44.346Z,3580.00
2019-03-18T09:50:44.321Z,3444.00
2019-03-18T09:51:44.309Z,3020.00
2019-03-18T09:52:44.347Z,2752.00
2019-03-18T09:53:44.278Z,2752.00
2019-03-18T09:54:44.276Z,3140.00
2019-03-18T09:55:44.266Z,3932.00
2019-03-18T09:56:44.265Z,4552.00
2019-03-18T09:57:44.283Z,4676.00
2019-03-18T09:58:44.614Z,4396.00
2019-03-18T09:59:44.243Z,4348.00
2019-03-18T10:00:44.205Z,4180.00
2019-03-18T10:01:44.580Z,3856.00
2019-03-18T10:02:44.233Z,3812.00
2019-03-18T10:03:44.246Z,3792.00
2019-03-18T10:04:44.214Z,3340.00
2019-03-18T10:05:44.974Z,2848.00
2019-03-18T10:06:45.070Z,2836.00
2019-03-18T10:07:44.332Z,2892.00
2019-03-18T10:08:44.162Z,3128.00
2019-03-18T10:09:44.105Z,3304.00
2019-03-18T10:10:44.106Z,3208.00
2019-03-18T10:11:44.087Z,2860.00
2019-03-18T10:12:44.417Z,2632.00
2019-03-18T10:13:44.076Z,2452.00
2019-03-18T10:14:44.060Z,2400.00
2019-03-18T10:15:44.052Z,3028.00
2019-03-18T10:16:44.086Z,4172.00
2019-03-18T10:17:44.092Z,5632.00
2019-03-18T10:18:44.016Z,6928.00
2019-03-18T10:19:44.051Z,7208.00
2019-03-18T10:20:43.991Z,7840.00
2019-03-18T10:21:43.988Z,8520.00
2019-03-18T10:22:43.981Z,9200.00
2019-03-18T10:23:44.008Z,10048.00
2019-03-18T10:24:43.969Z,11072.00
2019-03-18T10:25:43.936Z,12080.00
2019-03-18T10:26:43.923Z,13128.00
2019-03-18T10:27:43.970Z,13748.00
2019-03-18T10:28:43.904Z,12704.00
2019-03-18T10:29:44.034Z,10556.00
2019-03-18T10:30:43.932Z,9548.00
2019-03-18T10:31:43.989Z,8192.00
2019-03-18T10:32:43.934Z,7328.00
2019-03-18T10:33:45.056Z,6200.00
2019-03-18T10:34:44.117Z,4884.00
2019-03-18T10:35:43.861Z,4380.00
2019-03-18T10:36:43.871Z,4772.00
2019-03-18T10:37:43.822Z,5876.00
2019-03-18T10:38:43.901Z,7036.00
2019-03-18T10:39:43.830Z,8628.00
2019-03-18T10:40:43.946Z,9920.00
2019-03-18T10:41:43.831Z,10716.00
2019-03-18T10:42:43.777Z,11116.00
2019-03-18T10:43:43.754Z,11308.00
2019-03-18T10:44:43.893Z,11492.00
2019-03-18T10:45:43.722Z,11288.00
2019-03-18T10:46:43.736Z,10952.00
2019-03-18T10:47:43.775Z,10724.00
2019-03-18T10:48:43.760Z,10720.00
2019-03-18T10:49:46.510Z,10936.00
2019-03-18T10:50:43.682Z,11300.00
2019-03-18T10:51:43.760Z,11788.00
2019-03-18T10:52:43.668Z,12136.00
2019-03-18T10:53:44.666Z,12432.00
2019-03-18T10:54:43.661Z,12584.00
2019-03-18T10:55:43.621Z,12280.00
2019-03-18T10:56:43.598Z,11224.00
2019-03-18T10:57:43.628Z,9552.00
2019-03-18T10:58:43.581Z,8024.00
2019-03-18T10:59:43.611Z,7148.00
2019-03-18T11:00:43.560Z,6280.00
2019-03-18T11:01:43.590Z,5656.00
2019-03-18T11:02:44.960Z,6100.00
2019-03-18T11:03:43.535Z,7004.00
2019-03-18T11:04:43.547Z,8284.00
2019-03-18T11:05:43.564Z,9180.00
2019-03-18T11:06:43.484Z,9708.00
2019-03-18T11:07:43.616Z,9876.00
2019-03-18T11:08:43.505Z,9936.00
2019-03-18T11:09:43.467Z,10192.00
2019-03-18T11:10:43.499Z,10280.00
2019-03-18T11:11:43.508Z,10396.00
2019-03-18T11:12:43.487Z,10624.00
2019-03-18T11:13:43.407Z,10744.00
2019-03-18T11:14:43.419Z,10272.00
2019-03-18T11:15:43.425Z,9756.00
2019-03-18T11:16:43.427Z,9504.00
2019-03-18T11:17:43.363Z,9332.00
2019-03-18T11:18:43.359Z,9040.00
2019-03-18T11:19:43.347Z,8676.00
2019-03-18T11:20:43.373Z,8284.00
2019-03-18T11:21:43.348Z,7820.00
2019-03-18T11:22:43.323Z,7524.00
2019-03-18T11:23:43.344Z,7532.00
2019-03-18T11:24:43.290Z,7872.00
2019-03-18T11:25:43.314Z,8588.00
2019-03-18T11:26:43.280Z,9396.00
2019-03-18T11:27:43.268Z,9856.00
2019-03-18T11:28:43.270Z,9692.00
2019-03-18T11:29:43.303Z,9168.00
2019-03-18T11:30:43.243Z,8464.00
2019-03-18T11:31:43.211Z,7708.00
2019-03-18T11:32:43.212Z,7092.00
2019-03-18T11:33:43.204Z,6724.00
2019-03-18T11:34:43.264Z,6496.00
2019-03-18T11:35:43.163Z,6460.00
2019-03-18T11:36:43.155Z,6820.00
2019-03-18T11:37:43.144Z,7876.00
2019-03-18T11:38:43.148Z,7964.00
2019-03-18T11:39:43.135Z,8108.00
2019-03-18T11:40:43.162Z,8200.00
2019-03-18T11:41:43.108Z,8224.00
2019-03-18T11:42:43.089Z,8352.00
2019-03-18T11:43:43.082Z,8592.00
2019-03-18T11:44:43.072Z,8916.00
2019-03-18T11:45:43.112Z,9288.00
2019-03-18T11:46:43.154Z,9496.00
2019-03-18T11:47:43.032Z,9768.00
2019-03-18T11:48:43.075Z,9780.00
2019-03-18T11:49:43.023Z,9860.00
2019-03-18T11:50:43.048Z,8836.00
2019-03-18T11:51:42.988Z,9768.00
2019-03-18T11:52:43.014Z,10404.00
2019-03-18T11:53:42.977Z,10388.00
2019-03-18T11:54:42.961Z,9068.00
2019-03-18T11:55:42.949Z,9140.00
2019-03-18T11:56:42.939Z,9312.00
2019-03-18T11:57:42.989Z,8864.00
2019-03-18T11:58:42.982Z,9316.00
2019-03-18T11:59:42.903Z,9688.00
2019-03-18T12:00:42.916Z,10264.00
2019-03-18T12:01:42.960Z,11112.00
2019-03-18T12:02:42.906Z,12076.00
2019-03-18T12:03:42.898Z,12932.00
2019-03-18T12:04:42.857Z,12204.00
2019-03-18T12:05:42.837Z,12428.00
2019-03-18T12:06:42.828Z,12916.00
2019-03-18T12:07:42.809Z,13308.00
2019-03-18T12:08:42.886Z,13256.00
2019-03-18T12:09:42.805Z,13680.00
2019-03-18T12:10:42.779Z,13684.00
2019-03-18T12:11:42.785Z,14472.00
2019-03-18T12:12:42.751Z,13676.00
2019-03-18T12:13:42.801Z,13528.00
2019-03-18T12:14:42.786Z,13508.00
2019-03-18T12:15:42.715Z,13316.00
2019-03-18T12:16:42.722Z,13244.00
2019-03-18T12:17:42.749Z,12912.00
2019-03-18T12:18:42.683Z,12700.00
2019-03-18T12:19:42.676Z,12208.00
2019-03-18T12:20:42.689Z,12188.00
2019-03-18T12:21:42.701Z,11924.00
2019-03-18T12:22:42.647Z,11220.00
2019-03-18T12:23:42.851Z,10832.00
2019-03-18T12:24:42.645Z,10556.00
2019-03-18T12:25:42.679Z,10392.00
2019-03-18T12:26:42.624Z,10304.00
2019-03-18T12:27:42.592Z,9976.00
2019-03-18T12:28:42.583Z,9660.00
2019-03-18T12:29:42.564Z,9424.00
2019-03-18T12:30:42.587Z,9368.00
2019-03-18T12:31:42.612Z,9508.00
2019-03-18T12:32:42.533Z,9472.00
2019-03-18T12:33:42.572Z,8828.00
2019-03-18T12:34:42.541Z,8264.00
2019-03-18T12:35:42.511Z,7904.00
2019-03-18T12:36:42.573Z,7708.00
2019-03-18T12:37:42.468Z,8384.00